アシガバート の空港の天気 - METARとTAF

アシガバート空港 ( UTAA / ASB ) - トルクメニスタン アシガバート
飛行場実況気象(Metar)
観測時間08/17 16:00 TMT (08/17 11:00 UTC)
風向・風速東 9m/s
視程10km以上
天気現象
なし
気温34℃
湿度18%
気圧1008hPa
METARUTAA 171100Z 10018KT 9999 NSC 34/06 Q1008 R88/70D NOSIG
過去の天気等 Google飛行場航空写真 Wunderground天気予報

過去48時間のMETAR

飛行場予報(TAF)
発表時間: 8/17 15:30 TMT (8/17 10:30 UTC)
予報対象時間: 17日17時 TMT ~ 18日17時 TMT
風向・風速東南東 6m/s 瞬間風速 11m/s
視程6000m
全天の4割程度の雲 雲底高度 3050m
17日17時 TMT ~ 17日21時 TMT に一時的に
風向・風速東 9m/s 瞬間風速 14m/s
視程3000m
天気現象高い風塵
17日23時 TMT ~ 18日8時 TMT に一時的に
風向・風速南 7m/s
TAF UTAA 171030Z 1712/1812 12012G22KT 6000 SCT100
TEMPO 1712/1716 09018G28KT 3000 BLDU
TEMPO 1718/1803 18014KT